createdAt,value
2018-12-20T00:00:54.248Z,93.53
2018-12-20T00:01:54.204Z,94.04
2018-12-20T00:02:54.200Z,94.15
2018-12-20T00:03:54.239Z,94.25
2018-12-20T00:04:54.167Z,94.29
2018-12-20T00:05:54.275Z,94.04
2018-12-20T00:06:54.170Z,93.73
2018-12-20T00:07:54.141Z,93.73
2018-12-20T00:08:54.161Z,94.15
2018-12-20T00:09:54.241Z,93.63
2018-12-20T00:10:54.106Z,93.53
2018-12-20T00:11:54.116Z,93.47
2018-12-20T00:12:54.089Z,93.73
2018-12-20T00:13:54.076Z,93.63
2018-12-20T00:14:54.069Z,93.12
2018-12-20T00:15:54.168Z,93.63
2018-12-20T00:16:54.082Z,93.63
2018-12-20T00:17:54.053Z,93.32
2018-12-20T00:18:54.153Z,93.32
2018-12-20T00:19:54.042Z,93.53
2018-12-20T00:20:54.098Z,93.63
2018-12-20T00:21:54.024Z,93.53
2018-12-20T00:22:53.981Z,93.68
2018-12-20T00:23:54.077Z,93.63
2018-12-20T00:24:53.955Z,93.57
2018-12-20T00:25:54.031Z,93.63
2018-12-20T00:26:54.034Z,93.32
2018-12-20T00:27:53.995Z,94.46
2018-12-20T00:28:53.911Z,94.04
2018-12-20T00:29:53.996Z,94.56
2018-12-20T00:30:53.959Z,94.67
2018-12-20T00:31:53.895Z,94.77
2018-12-20T00:32:53.889Z,94.92
2018-12-20T00:33:54.003Z,94.60
2018-12-20T00:34:53.901Z,94.35
2018-12-20T00:35:53.857Z,94.67
2018-12-20T00:36:53.928Z,94.81
2018-12-20T00:37:53.813Z,94.92
2018-12-20T00:38:53.973Z,94.92
2018-12-20T00:39:53.787Z,94.97
2018-12-20T00:40:53.870Z,95.18
2018-12-20T00:41:53.885Z,95.07
2018-12-20T00:42:53.756Z,94.92
2018-12-20T00:43:53.843Z,95.02
2018-12-20T00:44:53.730Z,95.02
2018-12-20T00:45:53.726Z,94.71
2018-12-20T00:46:53.784Z,94.77
2018-12-20T00:47:53.706Z,95.39
2018-12-20T00:48:53.739Z,96.01
2018-12-20T00:49:53.729Z,95.59
2018-12-20T00:50:53.830Z,95.28
2018-12-20T00:51:53.658Z,95.02
2018-12-20T00:52:53.687Z,95.28
2018-12-20T00:53:53.645Z,94.67
2018-12-20T00:54:53.693Z,94.50
2018-12-20T00:55:53.839Z,94.81
2018-12-20T00:56:53.739Z,94.56
2018-12-20T00:57:53.642Z,94.04
2018-12-20T00:58:53.747Z,94.25
2018-12-20T00:59:53.654Z,94.67
2018-12-20T01:00:53.558Z,94.71
2018-12-20T01:01:53.639Z,94.60
2018-12-20T01:02:55.411Z,94.67
2018-12-20T01:03:53.542Z,94.60
2018-12-20T01:04:53.514Z,94.87
2018-12-20T01:05:53.640Z,94.71
2018-12-20T01:06:53.486Z,94.56
2018-12-20T01:07:53.561Z,94.46
2018-12-20T01:08:53.625Z,94.46
2018-12-20T01:09:53.493Z,94.46
2018-12-20T01:10:53.447Z,94.67
2018-12-20T01:11:53.431Z,94.15
2018-12-20T01:12:53.560Z,94.04
2018-12-20T01:13:53.417Z,94.15
2018-12-20T01:14:53.542Z,94.25
2018-12-20T01:15:53.413Z,94.15
2018-12-20T01:16:53.487Z,93.73
2018-12-20T01:17:53.362Z,94.15
2018-12-20T01:18:53.425Z,94.15
2018-12-20T01:19:53.472Z,94.15
2018-12-20T01:20:53.332Z,94.25
2018-12-20T01:21:53.339Z,94.25
2018-12-20T01:22:53.450Z,94.04
2018-12-20T01:23:53.441Z,93.73
2018-12-20T01:24:53.349Z,94.04
2018-12-20T01:25:53.290Z,94.15
2018-12-20T01:26:53.339Z,94.15
2018-12-20T01:27:53.458Z,93.94
2018-12-20T01:28:53.245Z,94.15
2018-12-20T01:29:53.448Z,94.04
2018-12-20T01:30:53.261Z,94.25
2018-12-20T01:31:53.336Z,94.10
2018-12-20T01:32:53.348Z,93.63
2018-12-20T01:33:53.216Z,94.15
2018-12-20T01:34:53.194Z,93.43
2018-12-20T01:35:53.209Z,93.69
2018-12-20T01:36:53.158Z,93.63
2018-12-20T01:37:53.155Z,93.53
2018-12-20T01:38:53.204Z,93.43
2018-12-20T01:39:53.252Z,93.53
2018-12-20T01:40:53.113Z,93.32
2018-12-20T01:41:53.105Z,93.18
2018-12-20T01:42:53.140Z,93.69
2018-12-20T01:43:53.102Z,93.28
2018-12-20T01:44:53.612Z,93.49
2018-12-20T01:45:53.177Z,93.28
2018-12-20T01:46:53.084Z,93.38
2018-12-20T01:47:53.105Z,93.38
2018-12-20T01:48:53.069Z,93.28
2018-12-20T01:49:53.049Z,93.84
2018-12-20T01:50:53.017Z,93.73
2018-12-20T01:51:52.992Z,93.32
2018-12-20T01:52:52.980Z,93.53
2018-12-20T01:53:53.186Z,93.69
2018-12-20T01:54:53.093Z,93.63
2018-12-20T01:55:52.968Z,93.22
2018-12-20T01:56:52.946Z,93.32
2018-12-20T01:57:52.921Z,93.43
2018-12-20T01:58:53.143Z,93.32
2018-12-20T01:59:52.933Z,93.53
2018-12-20T02:00:52.923Z,93.49
2018-12-20T02:01:52.891Z,93.32
2018-12-20T02:02:52.868Z,93.43
2018-12-20T02:03:52.999Z,93.18
2018-12-20T02:04:52.859Z,93.73
2018-12-20T02:05:52.843Z,93.84
2018-12-20T02:06:52.937Z,93.73
2018-12-20T02:07:52.881Z,93.73
2018-12-20T02:08:52.962Z,93.18
2018-12-20T02:09:53.000Z,93.63
2018-12-20T02:10:52.804Z,93.22
2018-12-20T02:11:52.794Z,93.84
2018-12-20T02:12:52.763Z,93.94
2018-12-20T02:13:52.751Z,93.63
2018-12-20T02:14:52.877Z,93.84
2018-12-20T02:15:52.809Z,93.84
2018-12-20T02:16:52.743Z,93.43
2018-12-20T02:17:52.832Z,93.63
2018-12-20T02:18:52.893Z,93.94
2018-12-20T02:19:52.799Z,93.94
2018-12-20T02:20:52.840Z,93.73
2018-12-20T02:21:52.747Z,93.07
2018-12-20T02:22:52.835Z,93.32
2018-12-20T02:23:52.715Z,93.22
2018-12-20T02:24:52.672Z,93.73
2018-12-20T02:25:52.650Z,93.73
2018-12-20T02:26:52.789Z,93.84
2018-12-20T02:27:52.597Z,93.12
2018-12-20T02:28:52.646Z,93.22
2018-12-20T02:29:52.652Z,93.32
2018-12-20T02:30:52.662Z,93.32
2018-12-20T02:31:52.611Z,93.43
2018-12-20T02:32:52.610Z,93.73
2018-12-20T02:33:52.573Z,93.84
2018-12-20T02:34:52.588Z,93.79
2018-12-20T02:35:52.508Z,93.22
2018-12-20T02:36:52.549Z,93.32
2018-12-20T02:37:52.701Z,93.63
2018-12-20T02:38:52.702Z,93.73
2018-12-20T02:39:52.698Z,93.63
2018-12-20T02:40:52.464Z,93.32
2018-12-20T02:41:52.732Z,93.43
2018-12-20T02:42:52.437Z,93.22
2018-12-20T02:43:52.484Z,93.47
2018-12-20T02:44:52.618Z,93.73
2018-12-20T02:45:52.626Z,93.43
2018-12-20T02:46:52.387Z,93.43
2018-12-20T02:47:52.405Z,93.22
2018-12-20T02:48:52.535Z,93.26
2018-12-20T02:49:52.383Z,93.57
2018-12-20T02:50:52.493Z,93.63
2018-12-20T02:51:52.644Z,93.68
2018-12-20T02:52:52.322Z,93.78
2018-12-20T02:53:52.495Z,93.63
2018-12-20T02:54:52.519Z,93.78
2018-12-20T02:55:52.299Z,93.84
2018-12-20T02:56:52.287Z,93.84
2018-12-20T02:57:52.494Z,93.88
2018-12-20T02:58:52.466Z,93.63
2018-12-20T02:59:52.588Z,94.09
2018-12-20T03:00:52.255Z,93.22
2018-12-20T03:01:52.392Z,93.32
2018-12-20T03:02:52.218Z,93.22
2018-12-20T03:03:52.207Z,92.91
2018-12-20T03:04:52.204Z,92.60
2018-12-20T03:05:52.421Z,92.91
2018-12-20T03:06:52.185Z,93.01
2018-12-20T03:07:52.373Z,92.80
2018-12-20T03:08:52.148Z,92.70
2018-12-20T03:09:52.295Z,92.91
2018-12-20T03:10:52.127Z,93.26
2018-12-20T03:11:52.137Z,93.47
2018-12-20T03:12:52.122Z,93.32
2018-12-20T03:13:52.180Z,94.04
2018-12-20T03:14:52.419Z,93.32
2018-12-20T03:15:52.089Z,93.22
2018-12-20T03:16:52.065Z,93.43
2018-12-20T03:17:52.061Z,92.91
2018-12-20T03:18:52.040Z,93.05
2018-12-20T03:19:52.232Z,92.95
2018-12-20T03:20:52.066Z,93.01
2018-12-20T03:21:52.015Z,93.43
2018-12-20T03:22:52.000Z,92.95
2018-12-20T03:23:51.986Z,93.37
2018-12-20T03:24:52.043Z,93.16
2018-12-20T03:25:52.042Z,92.80
2018-12-20T03:26:52.011Z,93.22
2018-12-20T03:27:51.999Z,93.12
2018-12-20T03:28:52.165Z,92.70
2018-12-20T03:29:51.945Z,92.91
2018-12-20T03:30:52.482Z,92.91
2018-12-20T03:31:51.950Z,93.01
2018-12-20T03:32:51.895Z,93.12
2018-12-20T03:33:51.873Z,93.22
2018-12-20T03:34:51.866Z,92.70
2018-12-20T03:35:51.953Z,92.60
2018-12-20T03:36:52.069Z,92.64
2018-12-20T03:37:51.915Z,93.01
2018-12-20T03:38:51.821Z,93.01
2018-12-20T03:39:51.890Z,92.19
2018-12-20T03:40:51.878Z,92.40
2018-12-20T03:41:51.831Z,92.19
2018-12-20T03:42:51.892Z,92.46
2018-12-20T03:43:51.770Z,92.40
2018-12-20T03:44:51.767Z,92.50
2018-12-20T03:45:51.800Z,92.19
2018-12-20T03:46:51.755Z,92.29
2018-12-20T03:47:51.752Z,92.40
2018-12-20T03:48:51.835Z,92.50
2018-12-20T03:49:51.725Z,92.50
2018-12-20T03:50:51.987Z,92.66
2018-12-20T03:51:51.805Z,92.60
2018-12-20T03:52:51.858Z,92.60
2018-12-20T03:53:51.677Z,92.19
2018-12-20T03:54:51.672Z,92.08
2018-12-20T03:55:51.695Z,91.73
2018-12-20T03:56:51.895Z,91.46
2018-12-20T03:57:51.611Z,91.77
2018-12-20T03:58:51.623Z,91.88
2018-12-20T03:59:51.614Z,92.08
2018-12-20T04:00:51.671Z,91.77
2018-12-20T04:01:51.670Z,91.46
2018-12-20T04:02:51.614Z,91.77
2018-12-20T04:03:51.664Z,91.83
2018-12-20T04:04:51.550Z,92.08
2018-12-20T04:05:51.556Z,91.88
2018-12-20T04:06:51.706Z,92.04
2018-12-20T04:07:51.507Z,91.83
2018-12-20T04:08:51.498Z,91.83
2018-12-20T04:09:51.485Z,92.35
2018-12-20T04:10:51.507Z,91.83
2018-12-20T04:11:51.471Z,91.52
2018-12-20T04:12:51.444Z,91.94
2018-12-20T04:13:51.468Z,91.94
2018-12-20T04:14:51.485Z,91.42
2018-12-20T04:15:51.725Z,91.52
2018-12-20T04:16:51.615Z,91.52
2018-12-20T04:17:51.426Z,91.63
2018-12-20T04:18:51.410Z,91.83
2018-12-20T04:19:51.368Z,91.73
2018-12-20T04:20:51.386Z,91.32
2018-12-20T04:21:51.434Z,91.73
2018-12-20T04:22:51.461Z,90.80
2018-12-20T04:23:51.454Z,91.32
2018-12-20T04:24:51.316Z,91.52
2018-12-20T04:25:51.312Z,91.52
2018-12-20T04:26:51.317Z,91.83
2018-12-20T04:27:51.351Z,91.83
2018-12-20T04:28:51.331Z,91.22
2018-12-20T04:29:51.466Z,91.32
2018-12-20T04:30:51.285Z,91.52
2018-12-20T04:31:51.471Z,91.83
2018-12-20T04:32:51.229Z,91.73
2018-12-20T04:33:51.224Z,91.52
2018-12-20T04:34:51.315Z,91.73
2018-12-20T04:35:51.212Z,91.73
2018-12-20T04:36:51.193Z,91.42
2018-12-20T04:37:51.221Z,91.42
2018-12-20T04:38:51.168Z,91.42
2018-12-20T04:39:51.364Z,91.42
2018-12-20T04:40:51.165Z,91.32
2018-12-20T04:41:51.262Z,91.63
2018-12-20T04:42:51.252Z,91.52
2018-12-20T04:43:51.101Z,91.94
2018-12-20T04:44:51.227Z,91.89
2018-12-20T04:45:51.559Z,91.42
2018-12-20T04:46:51.304Z,91.42
2018-12-20T04:47:51.294Z,91.63
2018-12-20T04:48:51.209Z,91.94
2018-12-20T04:49:51.258Z,91.83
2018-12-20T04:50:51.040Z,91.73
2018-12-20T04:51:51.057Z,91.73
2018-12-20T04:52:51.267Z,91.94
2018-12-20T04:53:51.043Z,91.94
2018-12-20T04:54:51.263Z,92.14
2018-12-20T04:55:50.983Z,91.94
2018-12-20T04:56:50.963Z,92.14
2018-12-20T04:57:50.946Z,91.94
2018-12-20T04:58:50.949Z,92.35
2018-12-20T04:59:51.002Z,91.94
2018-12-20T05:00:51.031Z,92.46
2018-12-20T05:01:50.924Z,92.55
2018-12-20T05:02:50.911Z,92.46
2018-12-20T05:03:50.894Z,92.55
2018-12-20T05:04:50.887Z,92.46
2018-12-20T05:05:50.858Z,92.66
2018-12-20T05:06:50.862Z,92.46
2018-12-20T05:07:50.851Z,92.66
2018-12-20T05:08:50.849Z,92.66
2018-12-20T05:09:50.840Z,92.46
2018-12-20T05:10:51.026Z,92.86
2018-12-20T05:11:51.149Z,92.55
2018-12-20T05:12:50.799Z,92.97
2018-12-20T05:13:50.783Z,93.07
2018-12-20T05:14:50.868Z,94.00
2018-12-20T05:15:56.017Z,93.18
2018-12-20T05:16:51.749Z,93.90
2018-12-20T05:17:50.856Z,93.90
2018-12-20T05:18:50.741Z,93.90
2018-12-20T05:19:50.745Z,93.79
2018-12-20T05:20:50.708Z,93.49
2018-12-20T05:21:50.826Z,93.79
2018-12-20T05:22:50.671Z,93.69
2018-12-20T05:23:50.671Z,93.59
2018-12-20T05:24:50.663Z,93.90
2018-12-20T05:25:50.686Z,93.49
2018-12-20T05:26:50.739Z,93.07
2018-12-20T05:27:50.650Z,93.28
2018-12-20T05:28:50.906Z,93.18
2018-12-20T05:29:50.773Z,93.59
2018-12-20T05:30:50.653Z,93.28
2018-12-20T05:31:50.586Z,93.69
2018-12-20T05:32:50.786Z,93.38
2018-12-20T05:33:50.721Z,93.18
2018-12-20T05:34:50.758Z,93.18
2018-12-20T05:35:50.550Z,93.59
2018-12-20T05:36:50.548Z,93.79
2018-12-20T05:37:50.552Z,93.59
2018-12-20T05:38:50.497Z,93.59
2018-12-20T05:39:50.493Z,93.69
2018-12-20T05:40:50.481Z,93.59
2018-12-20T05:41:50.677Z,93.59
2018-12-20T05:42:50.599Z,93.49
2018-12-20T05:43:50.709Z,93.49
2018-12-20T05:44:50.548Z,93.79
2018-12-20T05:45:50.458Z,93.85
2018-12-20T05:46:50.415Z,93.90
2018-12-20T05:47:50.402Z,93.79
2018-12-20T05:48:50.475Z,93.59
2018-12-20T05:49:50.395Z,93.69
2018-12-20T05:50:50.378Z,93.69
2018-12-20T05:51:50.413Z,93.79
2018-12-20T05:52:50.356Z,93.90
2018-12-20T05:53:50.352Z,93.59
2018-12-20T05:54:50.344Z,93.49
2018-12-20T05:55:50.313Z,93.75
2018-12-20T05:56:50.417Z,93.59
2018-12-20T05:57:50.545Z,93.59
2018-12-20T05:58:50.432Z,93.69
2018-12-20T05:59:50.276Z,93.69
2018-12-20T06:00:50.254Z,93.13
2018-12-20T06:01:50.251Z,92.93
2018-12-20T06:02:50.385Z,93.13
2018-12-20T06:03:50.329Z,92.93
2018-12-20T06:04:50.338Z,93.13
2018-12-20T06:05:50.429Z,93.07
2018-12-20T06:06:50.213Z,92.86
2018-12-20T06:07:50.184Z,92.97
2018-12-20T06:08:50.403Z,93.03
2018-12-20T06:09:50.461Z,92.61
2018-12-20T06:10:50.148Z,92.82
2018-12-20T06:11:50.152Z,92.61
2018-12-20T06:12:50.284Z,92.72
2018-12-20T06:13:50.361Z,92.55
2018-12-20T06:14:50.103Z,92.76
2018-12-20T06:15:50.275Z,92.55
2018-12-20T06:16:50.346Z,92.51
2018-12-20T06:17:50.069Z,92.51
2018-12-20T06:18:50.279Z,92.51
2018-12-20T06:19:50.133Z,92.61
2018-12-20T06:20:50.131Z,92.66
2018-12-20T06:21:50.164Z,92.51
2018-12-20T06:22:50.011Z,92.41
2018-12-20T06:23:50.007Z,92.10
2018-12-20T06:24:49.981Z,92.66
2018-12-20T06:25:49.973Z,92.82
2018-12-20T06:26:49.984Z,92.86
2018-12-20T06:27:49.953Z,92.51
2018-12-20T06:28:49.938Z,92.72
2018-12-20T06:29:49.924Z,93.13
2018-12-20T06:30:49.924Z,93.18
2018-12-20T06:31:49.924Z,93.18
2018-12-20T06:32:49.895Z,93.34
2018-12-20T06:33:49.880Z,93.24
2018-12-20T06:34:49.884Z,93.13
2018-12-20T06:35:49.865Z,93.18
2018-12-20T06:36:49.865Z,93.03
2018-12-20T06:37:49.849Z,93.03
2018-12-20T06:38:49.838Z,93.24
2018-12-20T06:39:49.860Z,92.93
2018-12-20T06:40:49.805Z,93.03
2018-12-20T06:41:49.920Z,94.00
2018-12-20T06:42:49.780Z,93.34
2018-12-20T06:43:49.780Z,93.13
2018-12-20T06:44:49.784Z,93.03
2018-12-20T06:45:49.749Z,93.24
2018-12-20T06:46:49.748Z,93.90
2018-12-20T06:47:49.729Z,93.13
2018-12-20T06:48:49.728Z,93.28
2018-12-20T06:49:49.704Z,93.24
2018-12-20T06:50:49.690Z,93.18
2018-12-20T06:51:49.706Z,93.03
2018-12-20T06:52:49.678Z,93.03
2018-12-20T06:53:49.656Z,93.24
2018-12-20T06:54:49.651Z,93.24
2018-12-20T06:55:49.653Z,93.13
2018-12-20T06:56:49.628Z,93.13
2018-12-20T06:57:49.621Z,92.82
2018-12-20T06:58:49.605Z,92.72
2018-12-20T06:59:49.590Z,92.93
2018-12-20T07:00:49.592Z,93.34
2018-12-20T07:01:49.567Z,93.28
2018-12-20T07:02:49.573Z,93.85
2018-12-20T07:03:49.545Z,93.24
2018-12-20T07:04:49.533Z,94.06
2018-12-20T07:05:49.523Z,93.75
2018-12-20T07:06:49.521Z,93.28
2018-12-20T07:07:49.515Z,93.38
2018-12-20T07:08:49.487Z,93.28
2018-12-20T07:09:49.486Z,93.79
2018-12-20T07:10:49.466Z,93.65
2018-12-20T07:11:49.464Z,93.54
2018-12-20T07:12:49.466Z,93.90
2018-12-20T07:13:49.548Z,93.65
2018-12-20T07:14:49.422Z,93.65
2018-12-20T07:15:49.424Z,93.65
2018-12-20T07:16:49.402Z,93.65
2018-12-20T07:17:49.409Z,93.24
2018-12-20T07:18:49.384Z,93.79
2018-12-20T07:19:49.369Z,93.54
2018-12-20T07:20:49.372Z,93.85
2018-12-20T07:21:49.345Z,93.59
2018-12-20T07:22:49.346Z,93.96
2018-12-20T07:23:49.351Z,93.59
2018-12-20T07:24:49.319Z,93.75
2018-12-20T07:25:49.343Z,93.65
2018-12-20T07:26:49.300Z,93.65
2018-12-20T07:27:49.285Z,93.90
2018-12-20T07:28:49.270Z,93.69
2018-12-20T07:29:49.272Z,93.69
2018-12-20T07:30:49.250Z,93.69
2018-12-20T07:31:49.231Z,93.44
2018-12-20T07:32:49.318Z,93.59
2018-12-20T07:33:49.211Z,93.54
2018-12-20T07:34:49.213Z,93.24
2018-12-20T07:35:49.213Z,93.59
2018-12-20T07:36:49.201Z,93.69
2018-12-20T07:37:49.180Z,93.34
2018-12-20T07:38:49.174Z,93.18
2018-12-20T07:39:49.144Z,93.24
2018-12-20T07:40:49.138Z,93.85
2018-12-20T07:41:49.134Z,93.85
2018-12-20T07:42:49.127Z,93.85
2018-12-20T07:43:49.096Z,93.44
2018-12-20T07:44:49.089Z,93.34
2018-12-20T07:45:49.216Z,93.24
2018-12-20T07:46:49.084Z,92.61
2018-12-20T07:47:49.074Z,92.51
2018-12-20T07:48:49.044Z,92.41
2018-12-20T07:49:49.032Z,92.61
2018-12-20T07:50:49.019Z,92.10
2018-12-20T07:51:49.015Z,92.00
2018-12-20T07:52:49.032Z,92.41
2018-12-20T07:53:49.015Z,92.61
2018-12-20T07:54:48.999Z,92.21
2018-12-20T07:55:48.972Z,92.16
2018-12-20T07:56:48.952Z,92.51
2018-12-20T07:57:48.960Z,92.51
2018-12-20T07:58:48.948Z,92.31
2018-12-20T07:59:48.922Z,92.21
2018-12-20T08:00:48.908Z,92.16
2018-12-20T08:01:48.904Z,92.47
2018-12-20T08:02:49.405Z,92.37
2018-12-20T08:03:48.878Z,92.37
2018-12-20T08:04:48.912Z,92.41
2018-12-20T08:05:48.863Z,92.00
2018-12-20T08:06:48.872Z,92.68
2018-12-20T08:07:48.844Z,92.16
2018-12-20T08:08:48.831Z,92.88
2018-12-20T08:09:48.811Z,91.75
2018-12-20T08:10:48.795Z,92.57
2018-12-20T08:11:48.801Z,91.75
2018-12-20T08:12:48.786Z,91.96
2018-12-20T08:13:48.763Z,92.27
2018-12-20T08:14:48.774Z,92.27
2018-12-20T08:15:50.629Z,91.96
2018-12-20T08:16:48.731Z,92.06
2018-12-20T08:17:48.744Z,91.64
2018-12-20T08:18:48.713Z,91.96
2018-12-20T08:19:48.701Z,91.44
2018-12-20T08:20:48.708Z,91.44
2018-12-20T08:21:48.683Z,91.13
2018-12-20T08:22:48.690Z,90.72
2018-12-20T08:23:48.650Z,91.50
2018-12-20T08:24:48.641Z,91.30
2018-12-20T08:25:48.639Z,91.19
2018-12-20T08:26:48.619Z,91.44
2018-12-20T08:27:48.623Z,91.54
2018-12-20T08:28:48.619Z,91.54
2018-12-20T08:29:48.585Z,91.75
2018-12-20T08:30:48.589Z,91.13
2018-12-20T08:31:48.572Z,91.34
2018-12-20T08:32:48.564Z,91.34
2018-12-20T08:33:48.562Z,91.03
2018-12-20T08:34:48.545Z,91.44
2018-12-20T08:35:48.519Z,91.30
2018-12-20T08:36:48.523Z,90.99
2018-12-20T08:37:48.509Z,90.88
2018-12-20T08:38:48.494Z,90.57
2018-12-20T08:39:48.488Z,90.67
2018-12-20T08:40:48.466Z,90.67
2018-12-20T08:41:48.451Z,90.88
2018-12-20T08:42:48.462Z,90.47
2018-12-20T08:43:48.443Z,90.88
2018-12-20T08:44:48.439Z,90.47
2018-12-20T08:45:48.422Z,90.06
2018-12-20T08:46:54.320Z,90.78
2018-12-20T08:47:49.419Z,90.57
2018-12-20T08:48:48.385Z,90.16
2018-12-20T08:49:48.376Z,90.16
2018-12-20T08:50:48.357Z,90.26
2018-12-20T08:51:49.124Z,90.16
2018-12-20T08:52:48.353Z,90.16
2018-12-20T08:53:48.344Z,90.16
2018-12-20T08:54:48.316Z,90.26
2018-12-20T08:55:48.302Z,90.37
2018-12-20T08:56:48.316Z,89.09
2018-12-20T08:57:48.300Z,89.23
2018-12-20T08:58:48.298Z,88.62
2018-12-20T08:59:48.269Z,88.68
2018-12-20T09:00:48.297Z,89.03
2018-12-20T09:01:48.231Z,89.29
2018-12-20T09:02:48.224Z,88.78
2018-12-20T09:03:48.221Z,88.68
2018-12-20T09:04:48.245Z,88.17
2018-12-20T09:05:48.213Z,87.96
2018-12-20T09:06:48.177Z,88.26
2018-12-20T09:07:48.167Z,88.17
2018-12-20T09:08:48.176Z,87.85
2018-12-20T09:09:48.142Z,87.96
2018-12-20T09:10:48.149Z,87.96
2018-12-20T09:11:48.119Z,87.96
2018-12-20T09:12:48.115Z,88.06
2018-12-20T09:13:48.108Z,88.37
2018-12-20T09:14:48.088Z,87.65
2018-12-20T09:15:48.195Z,87.24
2018-12-20T09:16:48.067Z,87.34
2018-12-20T09:17:48.094Z,87.65
2018-12-20T09:18:48.050Z,88.06
2018-12-20T09:19:48.040Z,87.34
2018-12-20T09:20:48.024Z,87.92
2018-12-20T09:21:48.017Z,87.19
2018-12-20T09:22:48.068Z,87.81
2018-12-20T09:23:48.397Z,86.99
2018-12-20T09:24:48.046Z,86.88
2018-12-20T09:25:47.996Z,86.47
2018-12-20T09:26:48.016Z,85.86
2018-12-20T09:27:47.947Z,86.47
2018-12-20T09:28:47.964Z,86.88
2018-12-20T09:29:47.920Z,86.37
2018-12-20T09:30:47.910Z,86.33
2018-12-20T09:31:47.903Z,86.16
2018-12-20T09:32:47.951Z,85.86
2018-12-20T09:33:47.910Z,85.61
2018-12-20T09:34:47.868Z,86.02
2018-12-20T09:35:47.854Z,86.23
2018-12-20T09:36:47.858Z,85.10
2018-12-20T09:37:47.831Z,86.33
2018-12-20T09:38:47.848Z,86.02
2018-12-20T09:39:47.817Z,85.10
2018-12-20T09:40:47.798Z,84.69
2018-12-20T09:41:47.788Z,84.69
2018-12-20T09:42:47.784Z,84.69
2018-12-20T09:43:47.788Z,84.69
2018-12-20T09:44:47.791Z,84.58
2018-12-20T09:45:47.750Z,84.89
2018-12-20T09:46:47.743Z,84.58
2018-12-20T09:47:47.722Z,84.48
2018-12-20T09:48:47.721Z,84.99
2018-12-20T09:49:47.701Z,84.89
2018-12-20T09:50:47.723Z,84.48
2018-12-20T09:51:47.676Z,84.69
2018-12-20T09:52:47.670Z,84.69
2018-12-20T09:53:47.670Z,84.27
2018-12-20T09:54:47.653Z,84.27
2018-12-20T09:55:47.645Z,84.38
2018-12-20T09:56:47.623Z,84.58
2018-12-20T09:57:47.631Z,84.38
2018-12-20T09:58:47.614Z,84.99
2018-12-20T09:59:47.590Z,85.10
2018-12-20T10:00:47.577Z,84.79
2018-12-20T10:01:47.590Z,84.99
2018-12-20T10:02:47.623Z,84.48
2018-12-20T10:03:47.578Z,84.58
2018-12-20T10:04:47.555Z,84.17
2018-12-20T10:05:47.536Z,84.38
2018-12-20T10:06:47.514Z,84.38
2018-12-20T10:07:47.526Z,84.48
2018-12-20T10:08:47.500Z,84.48
2018-12-20T10:09:47.481Z,84.48
2018-12-20T10:10:47.466Z,83.97
2018-12-20T10:11:47.460Z,84.17
2018-12-20T10:12:47.456Z,84.17
2018-12-20T10:13:47.442Z,84.48
2018-12-20T10:14:47.435Z,84.38
2018-12-20T10:15:47.414Z,84.17
2018-12-20T10:16:47.402Z,84.58
2018-12-20T10:17:47.408Z,84.79
2018-12-20T10:18:47.397Z,84.79
2018-12-20T10:19:47.368Z,83.86
2018-12-20T10:20:47.355Z,83.45
2018-12-20T10:21:47.345Z,83.35
2018-12-20T10:22:47.336Z,83.55
2018-12-20T10:23:47.335Z,83.35
2018-12-20T10:24:47.315Z,83.14
2018-12-20T10:25:47.305Z,82.79
2018-12-20T10:26:47.293Z,82.79
2018-12-20T10:27:47.314Z,82.79
2018-12-20T10:28:47.277Z,83.11
2018-12-20T10:29:47.269Z,82.90
2018-12-20T10:30:47.255Z,83.11
2018-12-20T10:31:47.241Z,83.20
2018-12-20T10:32:47.221Z,83.41
2018-12-20T10:33:47.223Z,83.41
2018-12-20T10:34:47.204Z,83.72
2018-12-20T10:35:47.195Z,83.11
2018-12-20T10:36:47.179Z,83.62
2018-12-20T10:37:47.188Z,83.62
2018-12-20T10:38:47.184Z,83.72
2018-12-20T10:39:47.171Z,83.76
2018-12-20T10:40:47.234Z,83.31
2018-12-20T10:41:47.134Z,83.51
2018-12-20T10:42:47.216Z,83.72
2018-12-20T10:43:47.394Z,83.45
2018-12-20T10:44:47.182Z,82.69
2018-12-20T10:45:47.076Z,83.41
2018-12-20T10:46:47.068Z,83.20
2018-12-20T10:47:47.058Z,83.86
2018-12-20T10:48:47.065Z,83.31
2018-12-20T10:49:47.046Z,83.55
2018-12-20T10:50:47.024Z,83.31
2018-12-20T10:51:47.019Z,83.41
2018-12-20T10:52:47.003Z,83.41
2018-12-20T10:53:46.994Z,83.41
2018-12-20T10:54:46.992Z,84.17
2018-12-20T10:55:46.968Z,84.23
2018-12-20T10:56:46.962Z,84.58
2018-12-20T10:57:46.954Z,85.10
2018-12-20T10:58:46.937Z,85.10
2018-12-20T10:59:46.937Z,86.02
2018-12-20T11:00:46.926Z,86.23
2018-12-20T11:01:46.905Z,86.54
2018-12-20T11:02:46.890Z,86.88
2018-12-20T11:03:47.885Z,87.09
2018-12-20T11:04:46.885Z,88.02
2018-12-20T11:05:46.860Z,87.51
2018-12-20T11:06:46.849Z,88.02
2018-12-20T11:07:46.834Z,88.57
2018-12-20T11:08:46.829Z,88.53
2018-12-20T11:09:46.831Z,88.95
2018-12-20T11:10:46.811Z,88.78
2018-12-20T11:11:46.793Z,88.64
2018-12-20T11:12:46.777Z,88.06
2018-12-20T11:13:46.766Z,88.37
2018-12-20T11:14:46.768Z,88.68
2018-12-20T11:15:46.754Z,89.09
2018-12-20T11:16:46.743Z,90.12
2018-12-20T11:17:46.729Z,89.61
2018-12-20T11:18:46.720Z,90.12
2018-12-20T11:19:46.714Z,90.22
2018-12-20T11:20:46.689Z,90.67
2018-12-20T11:21:46.681Z,90.67
2018-12-20T11:22:46.694Z,90.88
2018-12-20T11:23:46.658Z,91.40
2018-12-20T11:24:46.689Z,91.09
2018-12-20T11:25:46.643Z,91.09
2018-12-20T11:26:46.665Z,91.19
2018-12-20T11:27:46.615Z,91.09
2018-12-20T11:28:46.620Z,91.40
2018-12-20T11:29:46.603Z,91.09
2018-12-20T11:30:46.586Z,91.50
2018-12-20T11:31:46.567Z,90.88
2018-12-20T11:32:46.560Z,91.19
2018-12-20T11:33:46.550Z,91.19
2018-12-20T11:34:46.558Z,91.30
2018-12-20T11:35:46.524Z,91.09
2018-12-20T11:36:46.520Z,91.09
2018-12-20T11:37:46.500Z,91.50
2018-12-20T11:38:46.504Z,91.36
2018-12-20T11:39:46.488Z,91.40
2018-12-20T11:40:46.496Z,91.19
2018-12-20T11:41:46.475Z,91.56
2018-12-20T11:42:46.446Z,91.15
2018-12-20T11:43:46.435Z,91.15
2018-12-20T11:44:46.436Z,91.25
2018-12-20T11:45:46.436Z,91.05
2018-12-20T11:46:46.429Z,91.36
2018-12-20T11:47:46.457Z,90.73
2018-12-20T11:48:46.380Z,90.43
2018-12-20T11:49:46.406Z,90.53
2018-12-20T11:50:46.367Z,90.94
2018-12-20T11:51:46.364Z,90.73
2018-12-20T11:52:46.337Z,90.53
2018-12-20T11:53:46.348Z,90.01
2018-12-20T11:54:46.326Z,90.12
2018-12-20T11:55:46.334Z,90.01
2018-12-20T11:56:46.294Z,90.53
2018-12-20T11:57:46.297Z,90.12
2018-12-20T11:58:46.317Z,90.28
2018-12-20T11:59:46.286Z,90.33
2018-12-20T12:00:46.248Z,90.18
2018-12-20T12:01:46.244Z,90.18
2018-12-20T12:02:46.241Z,89.97
2018-12-20T12:03:46.253Z,89.97
2018-12-20T12:04:46.223Z,89.46
2018-12-20T12:05:46.191Z,89.56
2018-12-20T12:06:46.193Z,89.67
2018-12-20T12:07:46.179Z,89.67
2018-12-20T12:08:46.165Z,89.46
2018-12-20T12:09:46.160Z,89.15
2018-12-20T12:10:46.138Z,89.56
2018-12-20T12:11:46.129Z,89.05
2018-12-20T12:12:46.113Z,89.36
2018-12-20T12:13:46.108Z,89.05
2018-12-20T12:14:46.113Z,88.95
2018-12-20T12:15:46.085Z,88.64
2018-12-20T12:16:46.069Z,88.64
2018-12-20T12:17:54.046Z,88.33
2018-12-20T12:18:47.055Z,88.53
2018-12-20T12:19:46.150Z,89.05
2018-12-20T12:20:46.048Z,88.33
2018-12-20T12:21:46.015Z,87.92
2018-12-20T12:22:46.005Z,88.02
2018-12-20T12:23:45.998Z,87.81
2018-12-20T12:24:46.013Z,88.23
2018-12-20T12:25:45.987Z,88.08
2018-12-20T12:26:45.961Z,87.67
2018-12-20T12:27:45.953Z,87.98
2018-12-20T12:28:45.935Z,88.18
2018-12-20T12:29:45.926Z,87.15
2018-12-20T12:30:45.947Z,86.13
2018-12-20T12:31:45.920Z,86.64
2018-12-20T12:32:45.892Z,86.74
2018-12-20T12:33:45.883Z,86.33
2018-12-20T12:34:45.873Z,86.33
2018-12-20T12:35:45.871Z,86.08
2018-12-20T12:36:45.868Z,85.36
2018-12-20T12:37:45.870Z,85.06
2018-12-20T12:38:45.833Z,84.30
2018-12-20T12:39:45.814Z,84.50
2018-12-20T12:40:45.812Z,83.48
2018-12-20T12:41:45.796Z,83.37
2018-12-20T12:42:45.798Z,83.33
2018-12-20T12:43:50.953Z,83.03
2018-12-20T12:44:46.760Z,82.51
2018-12-20T12:45:47.474Z,82.47
2018-12-20T12:46:45.738Z,82.31
2018-12-20T12:47:45.731Z,82.27
2018-12-20T12:48:45.752Z,81.86
2018-12-20T12:49:45.705Z,82.37
2018-12-20T12:50:45.720Z,81.65
2018-12-20T12:51:52.875Z,81.62
2018-12-20T12:52:46.698Z,81.45